Hovedside
METAR-TAF:

METAR-TAF

Lufthavner :

Heidrun, Norge

Heidrunfeltet

breddegrad: 65-19-30N, lengdegrad: 007-19-36E, høyde over havet: 0 m

Gjeldene værobservasjon

Denne rapporten ble laget for 28 minutter siden, klokken 21:20 UTC
Vind 11 kt fra Nord-nordøst
Temperatur 13°C
Luftfuktighet 94%
Trykk 1004 hPa
Sikt 10 km eller mer
Få skyer i en høyde av 1500 ft
Brutte skyer i en høyde av 9500 ft

METAR: ENHE 182120Z 02011KT 9999 FEW015 BKN095 13/12 Q1004 W///S3

Tid: 23:48 (21:48 UTC)

Varsel

Denne rapporten ble laget for 1 time og 48 minutter siden, klokken 20:00 UTC
Varsel gyldig fra 18. klokken 21 UTC til 19. klokken 06 UTC
Vind 15 kt fra Nord-nordøst
Sikt 10 km eller mer
Spredte skyer i en høyde av 1200 ft
Sannsynlighet 40%
fra 18. klokken 21 UTC til 19. klokken 06 UTC
Brutte skyer i en høyde av 900 ft

TAF: ENHE 182000Z 1821/1906 03015KT 9999 SCT012 PROB40 1821/1906 BKN009

Værobservasjoner og værvarsel for over 4000 flyplasser (METAR- og TAF-rapporter).

Tilgjengelige stasjoner er representert av de røde og gule prikkene på kartet.

Hold musepekeren over prikken for å se navnet på stasjonen.

Klikk så for å se værobservasjoner og -varsler.

For å forandre kartet kan du klikke på den grønne knappen med svart kryss for å zoome inn, på den grønne knappen med strek for å zoome ut, eller på de grønne pilene for å se tilstøtende kart.


METAR-TAF: